sensor_id;sensor_type;location;lat;lon;timestamp;P1;durP1;ratioP1;P2;durP2;ratioP2
41921;SDS011;27609;51.002;5.354;2023-04-03T00:02:17;14.20;;;8.13;;
41921;SDS011;27609;51.002;5.354;2023-04-03T00:04:43;13.88;;;8.55;;
41921;SDS011;27609;51.002;5.354;2023-04-03T00:07:08;9.65;;;7.15;;
41921;SDS011;27609;51.002;5.354;2023-04-03T00:09:34;13.07;;;7.80;;
41921;SDS011;27609;51.002;5.354;2023-04-03T00:12:00;12.50;;;8.13;;
41921;SDS011;27609;51.002;5.354;2023-04-03T00:14:25;9.38;;;8.38;;
41921;SDS011;27609;51.002;5.354;2023-04-03T00:16:52;11.15;;;6.93;;
41921;SDS011;27609;51.002;5.354;2023-04-03T00:19:18;10.82;;;7.47;;
41921;SDS011;27609;51.002;5.354;2023-04-03T00:21:44;10.57;;;8.10;;
41921;SDS011;27609;51.002;5.354;2023-04-03T00:24:10;12.00;;;7.55;;
41921;SDS011;27609;51.002;5.354;2023-04-03T00:26:36;9.13;;;7.78;;
41921;SDS011;27609;51.002;5.354;2023-04-03T00:29:02;10.23;;;7.45;;
41921;SDS011;27609;51.002;5.354;2023-04-03T00:31:27;16.27;;;7.82;;
41921;SDS011;27609;51.002;5.354;2023-04-03T00:33:53;11.48;;;7.35;;
41921;SDS011;27609;51.002;5.354;2023-04-03T00:36:19;11.77;;;7.78;;
41921;SDS011;27609;51.002;5.354;2023-04-03T00:38:46;18.92;;;8.10;;
41921;SDS011;27609;51.002;5.354;2023-04-03T00:41:12;12.82;;;6.88;;
41921;SDS011;27609;51.002;5.354;2023-04-03T00:43:37;10.45;;;6.68;;
41921;SDS011;27609;51.002;5.354;2023-04-03T00:46:04;8.85;;;7.05;;
41921;SDS011;27609;51.002;5.354;2023-04-03T00:48:34;11.45;;;7.65;;
41921;SDS011;27609;51.002;5.354;2023-04-03T00:51:06;10.65;;;7.45;;
41921;SDS011;27609;51.002;5.354;2023-04-03T00:53:38;11.13;;;7.50;;
41921;SDS011;27609;51.002;5.354;2023-04-03T00:56:10;12.32;;;8.32;;
41921;SDS011;27609;51.002;5.354;2023-04-03T00:59:01;20.33;;;7.70;;
41921;SDS011;27609;51.002;5.354;2023-04-03T01:01:28;11.97;;;7.33;;
41921;SDS011;27609;51.002;5.354;2023-04-03T01:03:55;15.23;;;7.57;;
41921;SDS011;27609;51.002;5.354;2023-04-03T01:06:24;13.32;;;7.35;;
41921;SDS011;27609;51.002;5.354;2023-04-03T01:08:55;13.48;;;7.60;;
41921;SDS011;27609;51.002;5.354;2023-04-03T01:11:21;11.13;;;8.45;;
41921;SDS011;27609;51.002;5.354;2023-04-03T01:13:47;11.48;;;7.85;;
41921;SDS011;27609;51.002;5.354;2023-04-03T01:16:14;10.60;;;7.47;;
41921;SDS011;27609;51.002;5.354;2023-04-03T01:18:40;10.77;;;8.35;;
41921;SDS011;27609;51.002;5.354;2023-04-03T01:26:20;8.52;;;7.57;;
41921;SDS011;27609;51.002;5.354;2023-04-03T01:28:46;17.20;;;8.25;;
41921;SDS011;27609;51.002;5.354;2023-04-03T01:33:47;10.40;;;8.25;;
41921;SDS011;27609;51.002;5.354;2023-04-03T01:36:15;12.30;;;8.38;;
41921;SDS011;27609;51.002;5.354;2023-04-03T01:38:43;11.32;;;8.25;;
41921;SDS011;27609;51.002;5.354;2023-04-03T01:41:09;8.55;;;7.53;;
41921;SDS011;27609;51.002;5.354;2023-04-03T01:43:34;10.35;;;7.20;;
41921;SDS011;27609;51.002;5.354;2023-04-03T01:46:00;11.43;;;7.57;;
41921;SDS011;27609;51.002;5.354;2023-04-03T01:48:26;11.30;;;8.10;;
41921;SDS011;27609;51.002;5.354;2023-04-03T01:50:51;8.85;;;7.95;;
41921;SDS011;27609;51.002;5.354;2023-04-03T01:53:18;11.15;;;7.68;;
41921;SDS011;27609;51.002;5.354;2023-04-03T01:55:44;7.95;;;6.63;;
41921;SDS011;27609;51.002;5.354;2023-04-03T01:58:10;13.13;;;8.00;;
41921;SDS011;27609;51.002;5.354;2023-04-03T02:00:36;9.10;;;7.28;;
41921;SDS011;27609;51.002;5.354;2023-04-03T02:03:02;10.07;;;8.07;;
41921;SDS011;27609;51.002;5.354;2023-04-03T02:05:28;12.05;;;8.10;;
41921;SDS011;27609;51.002;5.354;2023-04-03T02:07:53;9.20;;;7.57;;
41921;SDS011;27609;51.002;5.354;2023-04-03T02:10:19;16.35;;;8.98;;
41921;SDS011;27609;51.002;5.354;2023-04-03T02:12:45;10.13;;;6.95;;
41921;SDS011;27609;51.002;5.354;2023-04-03T02:15:11;12.90;;;7.85;;
41921;SDS011;27609;51.002;5.354;2023-04-03T02:17:37;9.10;;;7.82;;
41921;SDS011;27609;51.002;5.354;2023-04-03T02:20:02;10.23;;;8.15;;
41921;SDS011;27609;51.002;5.354;2023-04-03T02:22:29;11.93;;;7.85;;
41921;SDS011;27609;51.002;5.354;2023-04-03T02:24:55;12.40;;;8.65;;
41921;SDS011;27609;51.002;5.354;2023-04-03T02:27:20;10.70;;;7.88;;
41921;SDS011;27609;51.002;5.354;2023-04-03T02:29:46;10.02;;;8.43;;
41921;SDS011;27609;51.002;5.354;2023-04-03T02:32:12;11.77;;;7.50;;
41921;SDS011;27609;51.002;5.354;2023-04-03T02:34:37;12.63;;;8.18;;
41921;SDS011;27609;51.002;5.354;2023-04-03T02:37:03;14.68;;;8.88;;
41921;SDS011;27609;51.002;5.354;2023-04-03T02:39:29;16.13;;;8.40;;
41921;SDS011;27609;51.002;5.354;2023-04-03T02:41:55;12.85;;;8.18;;
41921;SDS011;27609;51.002;5.354;2023-04-03T02:44:20;12.50;;;8.48;;
41921;SDS011;27609;51.002;5.354;2023-04-03T02:46:48;13.18;;;8.20;;
41921;SDS011;27609;51.002;5.354;2023-04-03T02:49:14;10.07;;;8.52;;
41921;SDS011;27609;51.002;5.354;2023-04-03T02:51:40;16.02;;;8.02;;
41921;SDS011;27609;51.002;5.354;2023-04-03T02:54:06;10.52;;;7.75;;
41921;SDS011;27609;51.002;5.354;2023-04-03T02:56:32;15.52;;;8.57;;
41921;SDS011;27609;51.002;5.354;2023-04-03T02:58:58;8.63;;;7.72;;
41921;SDS011;27609;51.002;5.354;2023-04-03T03:01:24;8.85;;;7.03;;
41921;SDS011;27609;51.002;5.354;2023-04-03T03:03:53;14.98;;;8.15;;
41921;SDS011;27609;51.002;5.354;2023-04-03T03:06:19;13.75;;;8.82;;
41921;SDS011;27609;51.002;5.354;2023-04-03T03:08:45;11.30;;;8.38;;
41921;SDS011;27609;51.002;5.354;2023-04-03T03:11:11;12.85;;;8.60;;
41921;SDS011;27609;51.002;5.354;2023-04-03T03:13:37;14.45;;;8.95;;
41921;SDS011;27609;51.002;5.354;2023-04-03T03:16:03;13.43;;;8.20;;
41921;SDS011;27609;51.002;5.354;2023-04-03T03:18:29;11.63;;;8.70;;
41921;SDS011;27609;51.002;5.354;2023-04-03T03:20:56;13.55;;;8.02;;
41921;SDS011;27609;51.002;5.354;2023-04-03T03:23:24;18.10;;;9.10;;
41921;SDS011;27609;51.002;5.354;2023-04-03T03:25:58;11.48;;;8.13;;
41921;SDS011;27609;51.002;5.354;2023-04-03T03:28:29;13.65;;;9.40;;
41921;SDS011;27609;51.002;5.354;2023-04-03T03:30:55;13.95;;;8.85;;
41921;SDS011;27609;51.002;5.354;2023-04-03T03:33:22;13.07;;;9.13;;
41921;SDS011;27609;51.002;5.354;2023-04-03T03:35:48;14.00;;;8.90;;
41921;SDS011;27609;51.002;5.354;2023-04-03T03:38:14;15.10;;;9.25;;
41921;SDS011;27609;51.002;5.354;2023-04-03T03:40:40;12.30;;;9.48;;
41921;SDS011;27609;51.002;5.354;2023-04-03T03:43:06;13.82;;;9.65;;
41921;SDS011;27609;51.002;5.354;2023-04-03T03:45:32;15.18;;;9.70;;
41921;SDS011;27609;51.002;5.354;2023-04-03T03:47:57;11.88;;;9.02;;
41921;SDS011;27609;51.002;5.354;2023-04-03T03:50:23;15.02;;;9.57;;
41921;SDS011;27609;51.002;5.354;2023-04-03T03:52:49;15.13;;;9.48;;
41921;SDS011;27609;51.002;5.354;2023-04-03T03:55:15;15.45;;;10.13;;
41921;SDS011;27609;51.002;5.354;2023-04-03T03:57:41;16.67;;;10.80;;
41921;SDS011;27609;51.002;5.354;2023-04-03T04:00:07;13.50;;;10.27;;
41921;SDS011;27609;51.002;5.354;2023-04-03T04:02:33;12.23;;;9.00;;
41921;SDS011;27609;51.002;5.354;2023-04-03T04:04:59;15.73;;;10.65;;
41921;SDS011;27609;51.002;5.354;2023-04-03T04:07:25;12.27;;;9.95;;
41921;SDS011;27609;51.002;5.354;2023-04-03T04:09:53;12.63;;;9.95;;
41921;SDS011;27609;51.002;5.354;2023-04-03T04:12:19;15.30;;;10.00;;
41921;SDS011;27609;51.002;5.354;2023-04-03T04:14:45;14.10;;;10.13;;
41921;SDS011;27609;51.002;5.354;2023-04-03T04:17:11;17.27;;;11.60;;
41921;SDS011;27609;51.002;5.354;2023-04-03T04:19:38;16.65;;;11.25;;
41921;SDS011;27609;51.002;5.354;2023-04-03T04:22:04;17.95;;;11.75;;
41921;SDS011;27609;51.002;5.354;2023-04-03T04:24:29;16.45;;;10.63;;
41921;SDS011;27609;51.002;5.354;2023-04-03T04:26:55;17.55;;;9.68;;
41921;SDS011;27609;51.002;5.354;2023-04-03T04:29:21;24.50;;;12.73;;
41921;SDS011;27609;51.002;5.354;2023-04-03T04:31:47;20.77;;;11.80;;
41921;SDS011;27609;51.002;5.354;2023-04-03T04:34:12;15.55;;;12.27;;
41921;SDS011;27609;51.002;5.354;2023-04-03T04:36:39;19.27;;;12.57;;
41921;SDS011;27609;51.002;5.354;2023-04-03T04:39:05;19.55;;;11.77;;
41921;SDS011;27609;51.002;5.354;2023-04-03T04:41:31;19.15;;;12.25;;
41921;SDS011;27609;51.002;5.354;2023-04-03T04:43:57;15.10;;;12.88;;
41921;SDS011;27609;51.002;5.354;2023-04-03T04:46:23;24.73;;;11.95;;
41921;SDS011;27609;51.002;5.354;2023-04-03T04:48:49;18.63;;;14.25;;
41921;SDS011;27609;51.002;5.354;2023-04-03T04:51:15;25.95;;;14.27;;
41921;SDS011;27609;51.002;5.354;2023-04-03T04:53:40;17.65;;;14.02;;
41921;SDS011;27609;51.002;5.354;2023-04-03T04:56:06;18.65;;;14.48;;
41921;SDS011;27609;51.002;5.354;2023-04-03T04:58:33;22.02;;;14.45;;
41921;SDS011;27609;51.002;5.354;2023-04-03T05:01:02;23.15;;;14.48;;
41921;SDS011;27609;51.002;5.354;2023-04-03T05:03:30;18.90;;;13.85;;
41921;SDS011;27609;51.002;5.354;2023-04-03T05:05:56;18.05;;;14.40;;
41921;SDS011;27609;51.002;5.354;2023-04-03T05:08:22;24.40;;;14.02;;
41921;SDS011;27609;51.002;5.354;2023-04-03T05:10:48;18.33;;;13.32;;
41921;SDS011;27609;51.002;5.354;2023-04-03T05:13:13;21.02;;;14.23;;
41921;SDS011;27609;51.002;5.354;2023-04-03T05:15:39;19.63;;;14.50;;
41921;SDS011;27609;51.002;5.354;2023-04-03T05:18:05;22.90;;;14.18;;
41921;SDS011;27609;51.002;5.354;2023-04-03T05:20:31;17.88;;;13.48;;
41921;SDS011;27609;51.002;5.354;2023-04-03T05:22:57;21.85;;;13.95;;
41921;SDS011;27609;51.002;5.354;2023-04-03T05:25:23;23.90;;;14.85;;
41921;SDS011;27609;51.002;5.354;2023-04-03T05:27:49;19.83;;;13.88;;
41921;SDS011;27609;51.002;5.354;2023-04-03T05:30:15;23.10;;;14.70;;
41921;SDS011;27609;51.002;5.354;2023-04-03T05:32:42;15.63;;;12.57;;
41921;SDS011;27609;51.002;5.354;2023-04-03T05:35:08;26.13;;;15.65;;
41921;SDS011;27609;51.002;5.354;2023-04-03T05:37:34;20.75;;;13.88;;
41921;SDS011;27609;51.002;5.354;2023-04-03T05:40:00;19.52;;;14.75;;
41921;SDS011;27609;51.002;5.354;2023-04-03T05:42:26;20.60;;;14.32;;
41921;SDS011;27609;51.002;5.354;2023-04-03T05:44:52;21.48;;;13.85;;
41921;SDS011;27609;51.002;5.354;2023-04-03T05:47:18;17.13;;;13.30;;
41921;SDS011;27609;51.002;5.354;2023-04-03T05:49:44;20.27;;;13.32;;
41921;SDS011;27609;51.002;5.354;2023-04-03T05:52:20;16.45;;;13.05;;
41921;SDS011;27609;51.002;5.354;2023-04-03T05:54:47;16.92;;;11.93;;
41921;SDS011;27609;51.002;5.354;2023-04-03T05:57:13;19.27;;;13.13;;
41921;SDS011;27609;51.002;5.354;2023-04-03T05:59:41;20.45;;;11.60;;
41921;SDS011;27609;51.002;5.354;2023-04-03T06:02:10;19.67;;;11.40;;
41921;SDS011;27609;51.002;5.354;2023-04-03T06:04:37;15.15;;;10.52;;
41921;SDS011;27609;51.002;5.354;2023-04-03T06:07:03;11.95;;;10.57;;
41921;SDS011;27609;51.002;5.354;2023-04-03T06:09:29;19.35;;;10.73;;
41921;SDS011;27609;51.002;5.354;2023-04-03T06:11:55;14.68;;;9.73;;
41921;SDS011;27609;51.002;5.354;2023-04-03T06:14:23;13.98;;;9.60;;
41921;SDS011;27609;51.002;5.354;2023-04-03T06:16:52;19.10;;;9.35;;
41921;SDS011;27609;51.002;5.354;2023-04-03T06:19:19;21.00;;;9.57;;
41921;SDS011;27609;51.002;5.354;2023-04-03T06:21:45;13.70;;;9.32;;
41921;SDS011;27609;51.002;5.354;2023-04-03T06:24:12;14.98;;;7.90;;
41921;SDS011;27609;51.002;5.354;2023-04-03T06:26:40;13.40;;;7.72;;
41921;SDS011;27609;51.002;5.354;2023-04-03T06:29:06;10.38;;;7.30;;
41921;SDS011;27609;51.002;5.354;2023-04-03T06:31:32;16.40;;;6.85;;
41921;SDS011;27609;51.002;5.354;2023-04-03T06:33:58;11.13;;;6.43;;
41921;SDS011;27609;51.002;5.354;2023-04-03T06:36:24;8.63;;;6.30;;
41921;SDS011;27609;51.002;5.354;2023-04-03T06:38:49;9.23;;;5.18;;
41921;SDS011;27609;51.002;5.354;2023-04-03T06:41:15;9.63;;;5.72;;
41921;SDS011;27609;51.002;5.354;2023-04-03T06:43:42;12.40;;;5.97;;
41921;SDS011;27609;51.002;5.354;2023-04-03T06:46:26;6.72;;;5.15;;
41921;SDS011;27609;51.002;5.354;2023-04-03T06:48:52;8.15;;;4.63;;
41921;SDS011;27609;51.002;5.354;2023-04-03T06:53:49;10.23;;;4.63;;
41921;SDS011;27609;51.002;5.354;2023-04-03T06:56:16;6.50;;;4.43;;
41921;SDS011;27609;51.002;5.354;2023-04-03T06:58:43;7.05;;;4.70;;
41921;SDS011;27609;51.002;5.354;2023-04-03T07:01:09;7.20;;;4.53;;
41921;SDS011;27609;51.002;5.354;2023-04-03T07:03:37;7.13;;;4.22;;
41921;SDS011;27609;51.002;5.354;2023-04-03T07:06:04;7.35;;;4.07;;
41921;SDS011;27609;51.002;5.354;2023-04-03T07:08:30;4.90;;;3.88;;
41921;SDS011;27609;51.002;5.354;2023-04-03T07:10:57;8.88;;;4.22;;
41921;SDS011;27609;51.002;5.354;2023-04-03T07:13:23;9.35;;;4.05;;
41921;SDS011;27609;51.002;5.354;2023-04-03T07:15:48;4.88;;;3.28;;
41921;SDS011;27609;51.002;5.354;2023-04-03T07:18:15;7.72;;;4.07;;
41921;SDS011;27609;51.002;5.354;2023-04-03T07:20:42;8.90;;;4.10;;
41921;SDS011;27609;51.002;5.354;2023-04-03T07:23:08;9.30;;;3.67;;
41921;SDS011;27609;51.002;5.354;2023-04-03T07:25:34;7.82;;;3.55;;
41921;SDS011;27609;51.002;5.354;2023-04-03T07:28:00;4.70;;;3.35;;
41921;SDS011;27609;51.002;5.354;2023-04-03T07:30:26;7.95;;;4.15;;
41921;SDS011;27609;51.002;5.354;2023-04-03T07:32:51;6.63;;;3.30;;
41921;SDS011;27609;51.002;5.354;2023-04-03T07:35:17;7.22;;;3.60;;
41921;SDS011;27609;51.002;5.354;2023-04-03T07:37:43;10.93;;;3.75;;
41921;SDS011;27609;51.002;5.354;2023-04-03T07:40:10;7.38;;;3.67;;
41921;SDS011;27609;51.002;5.354;2023-04-03T07:42:35;8.82;;;3.15;;
41921;SDS011;27609;51.002;5.354;2023-04-03T07:45:02;5.80;;;3.50;;
41921;SDS011;27609;51.002;5.354;2023-04-03T07:47:29;6.22;;;3.50;;
41921;SDS011;27609;51.002;5.354;2023-04-03T07:49:56;6.85;;;3.67;;
41921;SDS011;27609;51.002;5.354;2023-04-03T07:52:22;4.25;;;2.90;;
41921;SDS011;27609;51.002;5.354;2023-04-03T07:54:48;10.38;;;3.40;;
41921;SDS011;27609;51.002;5.354;2023-04-03T07:57:14;9.40;;;3.30;;
41921;SDS011;27609;51.002;5.354;2023-04-03T07:59:40;4.88;;;2.58;;
41921;SDS011;27609;51.002;5.354;2023-04-03T08:02:11;6.40;;;3.03;;
41921;SDS011;27609;51.002;5.354;2023-04-03T08:04:37;6.13;;;3.30;;
41921;SDS011;27609;51.002;5.354;2023-04-03T08:07:03;9.25;;;3.22;;
41921;SDS011;27609;51.002;5.354;2023-04-03T08:09:29;5.00;;;3.13;;
41921;SDS011;27609;51.002;5.354;2023-04-03T08:11:56;5.90;;;2.92;;
41921;SDS011;27609;51.002;5.354;2023-04-03T08:14:22;8.85;;;3.00;;
41921;SDS011;27609;51.002;5.354;2023-04-03T08:16:48;3.83;;;2.58;;
41921;SDS011;27609;51.002;5.354;2023-04-03T08:19:15;6.30;;;2.70;;
41921;SDS011;27609;51.002;5.354;2023-04-03T08:21:43;6.45;;;3.10;;
41921;SDS011;27609;51.002;5.354;2023-04-03T08:24:09;5.47;;;3.15;;
41921;SDS011;27609;51.002;5.354;2023-04-03T08:26:35;5.45;;;2.50;;
41921;SDS011;27609;51.002;5.354;2023-04-03T08:29:01;13.13;;;3.25;;
41921;SDS011;27609;51.002;5.354;2023-04-03T08:31:27;3.03;;;2.63;;
41921;SDS011;27609;51.002;5.354;2023-04-03T08:33:53;3.95;;;2.10;;
41921;SDS011;27609;51.002;5.354;2023-04-03T08:36:23;7.82;;;2.83;;
41921;SDS011;27609;51.002;5.354;2023-04-03T08:38:51;5.28;;;2.60;;
41921;SDS011;27609;51.002;5.354;2023-04-03T08:41:33;8.18;;;2.65;;
41921;SDS011;27609;51.002;5.354;2023-04-03T08:44:12;7.18;;;2.40;;
41921;SDS011;27609;51.002;5.354;2023-04-03T08:49:35;4.70;;;2.35;;
41921;SDS011;27609;51.002;5.354;2023-04-03T08:58:02;4.82;;;2.38;;
41921;SDS011;27609;51.002;5.354;2023-04-03T09:00:33;5.15;;;2.22;;
41921;SDS011;27609;51.002;5.354;2023-04-03T09:03:11;2.92;;;1.92;;
41921;SDS011;27609;51.002;5.354;2023-04-03T09:05:44;3.47;;;2.23;;
41921;SDS011;27609;51.002;5.354;2023-04-03T09:08:32;6.80;;;1.90;;
41921;SDS011;27609;51.002;5.354;2023-04-03T09:11:21;4.15;;;2.10;;
41921;SDS011;27609;51.002;5.354;2023-04-03T09:19:48;5.72;;;1.98;;
41921;SDS011;27609;51.002;5.354;2023-04-03T09:22:25;5.15;;;2.63;;
41921;SDS011;27609;51.002;5.354;2023-04-03T09:27:27;3.72;;;2.05;;
41921;SDS011;27609;51.002;5.354;2023-04-03T09:29:53;4.95;;;2.38;;
41921;SDS011;27609;51.002;5.354;2023-04-03T09:32:25;3.70;;;1.80;;
41921;SDS011;27609;51.002;5.354;2023-04-03T09:35:03;5.72;;;2.10;;
41921;SDS011;27609;51.002;5.354;2023-04-03T09:37:41;8.55;;;2.42;;
41921;SDS011;27609;51.002;5.354;2023-04-03T09:43:18;5.53;;;2.10;;
41921;SDS011;27609;51.002;5.354;2023-04-03T09:45:47;5.63;;;2.03;;
41921;SDS011;27609;51.002;5.354;2023-04-03T09:50:59;4.32;;;2.00;;
41921;SDS011;27609;51.002;5.354;2023-04-03T09:58:40;3.10;;;1.73;;
41921;SDS011;27609;51.002;5.354;2023-04-03T10:01:34;2.83;;;1.98;;
41921;SDS011;27609;51.002;5.354;2023-04-03T10:06:35;3.83;;;1.90;;
41921;SDS011;27609;51.002;5.354;2023-04-03T10:09:07;4.63;;;1.95;;
41921;SDS011;27609;51.002;5.354;2023-04-03T10:14:33;3.20;;;1.58;;
41921;SDS011;27609;51.002;5.354;2023-04-03T10:19:58;4.18;;;1.40;;
41921;SDS011;27609;51.002;5.354;2023-04-03T10:22:43;4.35;;;1.73;;
41921;SDS011;27609;51.002;5.354;2023-04-03T10:25:36;6.82;;;1.88;;
41921;SDS011;27609;51.002;5.354;2023-04-03T10:30:45;4.25;;;2.30;;
41921;SDS011;27609;51.002;5.354;2023-04-03T10:36:20;3.20;;;1.50;;
41921;SDS011;27609;51.002;5.354;2023-04-03T10:41:59;5.03;;;1.85;;
41921;SDS011;27609;51.002;5.354;2023-04-03T10:44:40;3.35;;;1.40;;
41921;SDS011;27609;51.002;5.354;2023-04-03T10:53:14;2.15;;;0.82;;
41921;SDS011;27609;51.002;5.354;2023-04-03T11:02:48;0.77;;;0.50;;
41921;SDS011;27609;51.002;5.354;2023-04-03T11:04:38;3.78;;;1.08;;
41921;SDS011;27609;51.002;5.354;2023-04-03T11:07:11;1.10;;;0.60;;
41921;SDS011;27609;51.002;5.354;2023-04-03T11:09:49;2.63;;;0.57;;
41921;SDS011;27609;51.002;5.354;2023-04-03T11:12:26;1.45;;;0.80;;
41921;SDS011;27609;51.002;5.354;2023-04-03T11:15:01;2.22;;;0.82;;
41921;SDS011;27609;51.002;5.354;2023-04-03T11:17:41;3.92;;;0.90;;
41921;SDS011;27609;51.002;5.354;2023-04-03T11:20:30;2.97;;;1.02;;
41921;SDS011;27609;51.002;5.354;2023-04-03T11:25:31;2.53;;;0.98;;
41921;SDS011;27609;51.002;5.354;2023-04-03T11:28:04;1.70;;;1.00;;
41921;SDS011;27609;51.002;5.354;2023-04-03T11:35:58;2.70;;;0.85;;
41921;SDS011;27609;51.002;5.354;2023-04-03T11:38:33;1.63;;;1.48;;
41921;SDS011;27609;51.002;5.354;2023-04-03T11:41:04;2.67;;;1.10;;
41921;SDS011;27609;51.002;5.354;2023-04-03T11:43:32;1.15;;;0.80;;
41921;SDS011;27609;51.002;5.354;2023-04-03T11:46:00;2.95;;;1.77;;
41921;SDS011;27609;51.002;5.354;2023-04-03T11:50:54;2.22;;;0.85;;
41921;SDS011;27609;51.002;5.354;2023-04-03T11:53:35;2.80;;;0.95;;
41921;SDS011;27609;51.002;5.354;2023-04-03T12:01:43;3.88;;;1.20;;
41921;SDS011;27609;51.002;5.354;2023-04-03T12:04:14;1.00;;;0.90;;
41921;SDS011;27609;51.002;5.354;2023-04-03T12:09:26;1.52;;;1.30;;
41921;SDS011;27609;51.002;5.354;2023-04-03T12:15:21;1.95;;;0.88;;
41921;SDS011;27609;51.002;5.354;2023-04-03T12:21:13;2.22;;;0.93;;
41921;SDS011;27609;51.002;5.354;2023-04-03T12:23:57;2.63;;;1.27;;
41921;SDS011;27609;51.002;5.354;2023-04-03T12:26:26;2.00;;;1.15;;
41921;SDS011;27609;51.002;5.354;2023-04-03T12:28:56;2.25;;;0.93;;
41921;SDS011;27609;51.002;5.354;2023-04-03T12:31:22;2.00;;;1.00;;
41921;SDS011;27609;51.002;5.354;2023-04-03T12:37:39;1.92;;;1.10;;
41921;SDS011;27609;51.002;5.354;2023-04-03T12:39:45;2.90;;;1.40;;
41921;SDS011;27609;51.002;5.354;2023-04-03T12:45:26;3.40;;;1.80;;
41921;SDS011;27609;51.002;5.354;2023-04-03T12:47:53;3.40;;;1.65;;
41921;SDS011;27609;51.002;5.354;2023-04-03T12:50:25;3.08;;;1.50;;
41921;SDS011;27609;51.002;5.354;2023-04-03T12:52:56;3.13;;;1.33;;
41921;SDS011;27609;51.002;5.354;2023-04-03T12:55:42;2.05;;;1.30;;
41921;SDS011;27609;51.002;5.354;2023-04-03T12:58:20;2.28;;;1.20;;
41921;SDS011;27609;51.002;5.354;2023-04-03T13:03:45;2.95;;;1.17;;
41921;SDS011;27609;51.002;5.354;2023-04-03T13:08:54;2.10;;;1.33;;
41921;SDS011;27609;51.002;5.354;2023-04-03T13:11:25;2.75;;;1.55;;
41921;SDS011;27609;51.002;5.354;2023-04-03T13:13:59;2.33;;;1.52;;
41921;SDS011;27609;51.002;5.354;2023-04-03T13:16:28;2.78;;;1.48;;
41921;SDS011;27609;51.002;5.354;2023-04-03T13:18:54;3.25;;;1.30;;
41921;SDS011;27609;51.002;5.354;2023-04-03T13:21:30;2.70;;;1.63;;
41921;SDS011;27609;51.002;5.354;2023-04-03T13:23:59;3.90;;;1.38;;
41921;SDS011;27609;51.002;5.354;2023-04-03T13:26:28;3.17;;;1.60;;
41921;SDS011;27609;51.002;5.354;2023-04-03T13:28:57;1.85;;;1.20;;
41921;SDS011;27609;51.002;5.354;2023-04-03T13:31:29;3.72;;;1.52;;
41921;SDS011;27609;51.002;5.354;2023-04-03T13:33:59;3.67;;;2.00;;
41921;SDS011;27609;51.002;5.354;2023-04-03T13:36:37;4.72;;;2.42;;
41921;SDS011;27609;51.002;5.354;2023-04-03T13:41:44;5.30;;;1.63;;
41921;SDS011;27609;51.002;5.354;2023-04-03T13:46:46;4.53;;;1.55;;
41921;SDS011;27609;51.002;5.354;2023-04-03T13:51:56;6.03;;;1.85;;
41921;SDS011;27609;51.002;5.354;2023-04-03T13:54:23;4.47;;;1.60;;
41921;SDS011;27609;51.002;5.354;2023-04-03T13:56:54;4.57;;;1.48;;
41921;SDS011;27609;51.002;5.354;2023-04-03T14:01:53;4.68;;;1.95;;
41921;SDS011;27609;51.002;5.354;2023-04-03T14:04:32;2.13;;;1.52;;
41921;SDS011;27609;51.002;5.354;2023-04-03T14:07:11;2.17;;;1.50;;
41921;SDS011;27609;51.002;5.354;2023-04-03T14:09:37;4.63;;;2.00;;
41921;SDS011;27609;51.002;5.354;2023-04-03T14:12:17;5.72;;;1.95;;
41921;SDS011;27609;51.002;5.354;2023-04-03T14:14:46;3.67;;;2.00;;
41921;SDS011;27609;51.002;5.354;2023-04-03T14:17:20;3.13;;;1.60;;
41921;SDS011;27609;51.002;5.354;2023-04-03T14:19:48;4.70;;;1.55;;
41921;SDS011;27609;51.002;5.354;2023-04-03T14:22:17;3.80;;;1.88;;
41921;SDS011;27609;51.002;5.354;2023-04-03T14:24:47;4.32;;;1.80;;
41921;SDS011;27609;51.002;5.354;2023-04-03T14:27:21;2.13;;;1.38;;
41921;SDS011;27609;51.002;5.354;2023-04-03T14:29:51;4.60;;;1.70;;
41921;SDS011;27609;51.002;5.354;2023-04-03T14:32:19;4.55;;;1.80;;
41921;SDS011;27609;51.002;5.354;2023-04-03T14:34:46;4.88;;;1.55;;
41921;SDS011;27609;51.002;5.354;2023-04-03T14:37:14;3.60;;;1.73;;
41921;SDS011;27609;51.002;5.354;2023-04-03T14:39:41;3.92;;;1.85;;
41921;SDS011;27609;51.002;5.354;2023-04-03T14:42:12;6.03;;;1.98;;
41921;SDS011;27609;51.002;5.354;2023-04-03T14:44:40;4.13;;;1.63;;
41921;SDS011;27609;51.002;5.354;2023-04-03T14:47:13;3.25;;;1.80;;
41921;SDS011;27609;51.002;5.354;2023-04-03T14:49:41;2.38;;;1.90;;
41921;SDS011;27609;51.002;5.354;2023-04-03T14:52:16;3.63;;;2.13;;
41921;SDS011;27609;51.002;5.354;2023-04-03T14:54:49;2.58;;;1.70;;
41921;SDS011;27609;51.002;5.354;2023-04-03T14:57:16;4.22;;;1.60;;
41921;SDS011;27609;51.002;5.354;2023-04-03T14:59:43;1.63;;;1.52;;
41921;SDS011;27609;51.002;5.354;2023-04-03T15:02:29;1.95;;;1.40;;
41921;SDS011;27609;51.002;5.354;2023-04-03T15:04:55;4.13;;;1.70;;
41921;SDS011;27609;51.002;5.354;2023-04-03T15:07:22;5.55;;;1.77;;
41921;SDS011;27609;51.002;5.354;2023-04-03T15:09:50;3.53;;;1.90;;
41921;SDS011;27609;51.002;5.354;2023-04-03T15:12:16;12.10;;;2.10;;
41921;SDS011;27609;51.002;5.354;2023-04-03T15:14:41;4.82;;;1.50;;
41921;SDS011;27609;51.002;5.354;2023-04-03T15:17:10;4.10;;;1.83;;
41921;SDS011;27609;51.002;5.354;2023-04-03T15:19:41;2.58;;;1.45;;
41921;SDS011;27609;51.002;5.354;2023-04-03T15:22:11;2.90;;;1.83;;
41921;SDS011;27609;51.002;5.354;2023-04-03T15:24:39;3.72;;;1.58;;
41921;SDS011;27609;51.002;5.354;2023-04-03T15:27:05;3.88;;;1.70;;
41921;SDS011;27609;51.002;5.354;2023-04-03T15:29:31;4.80;;;1.77;;
41921;SDS011;27609;51.002;5.354;2023-04-03T15:31:57;4.78;;;1.85;;
41921;SDS011;27609;51.002;5.354;2023-04-03T15:34:22;4.65;;;1.65;;
41921;SDS011;27609;51.002;5.354;2023-04-03T15:36:49;5.13;;;1.73;;
41921;SDS011;27609;51.002;5.354;2023-04-03T15:39:17;5.82;;;1.75;;
41921;SDS011;27609;51.002;5.354;2023-04-03T15:41:43;3.80;;;1.60;;
41921;SDS011;27609;51.002;5.354;2023-04-03T15:44:10;5.63;;;1.63;;
41921;SDS011;27609;51.002;5.354;2023-04-03T15:46:37;4.90;;;1.40;;
41921;SDS011;27609;51.002;5.354;2023-04-03T15:49:03;4.25;;;1.60;;
41921;SDS011;27609;51.002;5.354;2023-04-03T15:51:30;2.08;;;1.48;;
41921;SDS011;27609;51.002;5.354;2023-04-03T15:53:56;6.13;;;1.98;;
41921;SDS011;27609;51.002;5.354;2023-04-03T15:56:22;2.15;;;1.58;;
41921;SDS011;27609;51.002;5.354;2023-04-03T15:58:48;5.63;;;1.60;;
41921;SDS011;27609;51.002;5.354;2023-04-03T16:01:14;5.75;;;1.40;;
41921;SDS011;27609;51.002;5.354;2023-04-03T16:03:40;2.85;;;1.77;;
41921;SDS011;27609;51.002;5.354;2023-04-03T16:06:11;6.07;;;2.00;;
41921;SDS011;27609;51.002;5.354;2023-04-03T16:08:38;3.00;;;2.25;;
41921;SDS011;27609;51.002;5.354;2023-04-03T16:11:04;4.18;;;1.67;;
41921;SDS011;27609;51.002;5.354;2023-04-03T16:13:30;4.05;;;2.00;;
41921;SDS011;27609;51.002;5.354;2023-04-03T16:15:55;2.40;;;2.00;;
41921;SDS011;27609;51.002;5.354;2023-04-03T16:18:21;4.50;;;1.42;;
41921;SDS011;27609;51.002;5.354;2023-04-03T16:20:47;3.42;;;1.63;;
41921;SDS011;27609;51.002;5.354;2023-04-03T16:23:13;5.13;;;1.60;;
41921;SDS011;27609;51.002;5.354;2023-04-03T16:25:39;4.55;;;1.88;;
41921;SDS011;27609;51.002;5.354;2023-04-03T16:28:05;4.88;;;1.52;;
41921;SDS011;27609;51.002;5.354;2023-04-03T16:30:31;6.88;;;1.48;;
41921;SDS011;27609;51.002;5.354;2023-04-03T16:32:58;5.53;;;1.80;;
41921;SDS011;27609;51.002;5.354;2023-04-03T16:35:23;3.25;;;1.60;;
41921;SDS011;27609;51.002;5.354;2023-04-03T16:37:49;5.03;;;2.00;;
41921;SDS011;27609;51.002;5.354;2023-04-03T16:40:15;5.30;;;2.05;;
41921;SDS011;27609;51.002;5.354;2023-04-03T16:42:41;4.13;;;1.98;;
41921;SDS011;27609;51.002;5.354;2023-04-03T16:45:07;5.38;;;2.13;;